sensor_id;sensor_type;location;lat;lon;timestamp;P1;durP1;ratioP1;P2;durP2;ratioP2
65751;SDS011;52486;51.098;13.770;2023-03-13T00:00:52;1.35;;;1.02;;
65751;SDS011;52486;51.098;13.770;2023-03-13T00:03:18;1.42;;;1.23;;
65751;SDS011;52486;51.098;13.770;2023-03-13T00:05:44;3.95;;;1.20;;
65751;SDS011;52486;51.098;13.770;2023-03-13T00:08:11;1.20;;;1.10;;
65751;SDS011;52486;51.098;13.770;2023-03-13T00:10:37;1.08;;;0.98;;
65751;SDS011;52486;51.098;13.770;2023-03-13T00:13:03;1.95;;;1.33;;
65751;SDS011;52486;51.098;13.770;2023-03-13T00:15:30;1.92;;;1.20;;
65751;SDS011;52486;51.098;13.770;2023-03-13T00:17:56;1.48;;;1.27;;
65751;SDS011;52486;51.098;13.770;2023-03-13T00:20:22;1.88;;;1.20;;
65751;SDS011;52486;51.098;13.770;2023-03-13T00:22:48;1.83;;;1.00;;
65751;SDS011;52486;51.098;13.770;2023-03-13T00:25:14;1.50;;;1.17;;
65751;SDS011;52486;51.098;13.770;2023-03-13T00:27:40;2.22;;;1.27;;
65751;SDS011;52486;51.098;13.770;2023-03-13T00:30:06;1.67;;;1.13;;
65751;SDS011;52486;51.098;13.770;2023-03-13T00:32:33;3.35;;;1.40;;
65751;SDS011;52486;51.098;13.770;2023-03-13T00:34:59;1.85;;;1.23;;
65751;SDS011;52486;51.098;13.770;2023-03-13T00:37:25;1.35;;;1.17;;
65751;SDS011;52486;51.098;13.770;2023-03-13T00:39:51;0.90;;;0.90;;
65751;SDS011;52486;51.098;13.770;2023-03-13T00:42:17;1.80;;;1.10;;
65751;SDS011;52486;51.098;13.770;2023-03-13T00:44:43;1.50;;;1.20;;
65751;SDS011;52486;51.098;13.770;2023-03-13T00:47:09;1.30;;;1.20;;
65751;SDS011;52486;51.098;13.770;2023-03-13T00:49:35;1.38;;;1.20;;
65751;SDS011;52486;51.098;13.770;2023-03-13T00:52:01;1.83;;;1.30;;
65751;SDS011;52486;51.098;13.770;2023-03-13T00:54:27;2.08;;;1.27;;
65751;SDS011;52486;51.098;13.770;2023-03-13T00:56:53;1.95;;;1.10;;
65751;SDS011;52486;51.098;13.770;2023-03-13T00:59:19;1.20;;;1.10;;
65751;SDS011;52486;51.098;13.770;2023-03-13T01:01:45;1.60;;;1.20;;
65751;SDS011;52486;51.098;13.770;2023-03-13T01:04:12;1.70;;;1.17;;
65751;SDS011;52486;51.098;13.770;2023-03-13T01:06:39;1.35;;;1.13;;
65751;SDS011;52486;51.098;13.770;2023-03-13T01:09:10;1.80;;;1.33;;
65751;SDS011;52486;51.098;13.770;2023-03-13T01:11:38;1.45;;;1.20;;
65751;SDS011;52486;51.098;13.770;2023-03-13T01:14:05;1.20;;;1.10;;
65751;SDS011;52486;51.098;13.770;2023-03-13T01:16:32;1.42;;;1.00;;
65751;SDS011;52486;51.098;13.770;2023-03-13T01:18:59;1.83;;;1.42;;
65751;SDS011;52486;51.098;13.770;2023-03-13T01:21:27;1.10;;;1.00;;
65751;SDS011;52486;51.098;13.770;2023-03-13T01:23:53;1.30;;;1.20;;
65751;SDS011;52486;51.098;13.770;2023-03-13T01:26:20;1.58;;;1.05;;
65751;SDS011;52486;51.098;13.770;2023-03-13T01:28:46;1.40;;;1.10;;
65751;SDS011;52486;51.098;13.770;2023-03-13T01:31:19;1.77;;;1.20;;
65751;SDS011;52486;51.098;13.770;2023-03-13T01:33:46;2.15;;;1.13;;
65751;SDS011;52486;51.098;13.770;2023-03-13T01:36:13;2.00;;;1.20;;
65751;SDS011;52486;51.098;13.770;2023-03-13T01:38:39;1.65;;;1.13;;
65751;SDS011;52486;51.098;13.770;2023-03-13T01:41:06;2.13;;;1.10;;
65751;SDS011;52486;51.098;13.770;2023-03-13T01:43:33;1.27;;;1.10;;
65751;SDS011;52486;51.098;13.770;2023-03-13T01:46:02;1.17;;;1.08;;
65751;SDS011;52486;51.098;13.770;2023-03-13T01:50:54;3.05;;;1.20;;
65751;SDS011;52486;51.098;13.770;2023-03-13T01:53:21;1.25;;;1.08;;
65751;SDS011;52486;51.098;13.770;2023-03-13T01:55:48;1.27;;;1.10;;
65751;SDS011;52486;51.098;13.770;2023-03-13T01:58:15;1.52;;;1.20;;
65751;SDS011;52486;51.098;13.770;2023-03-13T02:00:41;1.48;;;1.30;;
65751;SDS011;52486;51.098;13.770;2023-03-13T02:03:10;1.70;;;1.05;;
65751;SDS011;52486;51.098;13.770;2023-03-13T02:05:37;1.58;;;1.25;;
65751;SDS011;52486;51.098;13.770;2023-03-13T02:08:05;1.33;;;1.10;;
65751;SDS011;52486;51.098;13.770;2023-03-13T02:10:32;2.28;;;1.13;;
65751;SDS011;52486;51.098;13.770;2023-03-13T02:13:02;2.17;;;1.40;;
65751;SDS011;52486;51.098;13.770;2023-03-13T02:15:28;3.47;;;1.20;;
65751;SDS011;52486;51.098;13.770;2023-03-13T02:17:55;1.25;;;1.15;;
65751;SDS011;52486;51.098;13.770;2023-03-13T02:20:21;1.15;;;1.00;;
65751;SDS011;52486;51.098;13.770;2023-03-13T02:28:34;1.52;;;1.30;;
65751;SDS011;52486;51.098;13.770;2023-03-13T02:30:35;2.50;;;1.30;;
65751;SDS011;52486;51.098;13.770;2023-03-13T02:33:02;1.20;;;1.10;;
65751;SDS011;52486;51.098;13.770;2023-03-13T02:35:28;2.58;;;1.48;;
65751;SDS011;52486;51.098;13.770;2023-03-13T02:37:56;1.60;;;1.27;;
65751;SDS011;52486;51.098;13.770;2023-03-13T02:40:27;1.55;;;1.40;;
65751;SDS011;52486;51.098;13.770;2023-03-13T02:42:54;1.33;;;1.10;;
65751;SDS011;52486;51.098;13.770;2023-03-13T02:45:20;1.45;;;1.13;;
65751;SDS011;52486;51.098;13.770;2023-03-13T02:47:47;1.40;;;1.30;;
65751;SDS011;52486;51.098;13.770;2023-03-13T02:50:13;1.65;;;1.20;;
65751;SDS011;52486;51.098;13.770;2023-03-13T02:52:47;1.38;;;1.10;;
65751;SDS011;52486;51.098;13.770;2023-03-13T02:55:18;2.10;;;1.48;;
65751;SDS011;52486;51.098;13.770;2023-03-13T02:57:47;1.75;;;1.33;;
65751;SDS011;52486;51.098;13.770;2023-03-13T03:00:13;1.40;;;1.30;;
65751;SDS011;52486;51.098;13.770;2023-03-13T03:02:41;2.17;;;1.30;;
65751;SDS011;52486;51.098;13.770;2023-03-13T03:05:07;2.13;;;1.30;;
65751;SDS011;52486;51.098;13.770;2023-03-13T03:07:33;1.58;;;1.17;;
65751;SDS011;52486;51.098;13.770;2023-03-13T03:09:59;1.70;;;1.15;;
65751;SDS011;52486;51.098;13.770;2023-03-13T03:12:25;1.65;;;1.13;;
65751;SDS011;52486;51.098;13.770;2023-03-13T03:14:51;2.33;;;1.40;;
65751;SDS011;52486;51.098;13.770;2023-03-13T03:17:18;2.03;;;1.27;;
65751;SDS011;52486;51.098;13.770;2023-03-13T03:19:44;1.65;;;1.50;;
65751;SDS011;52486;51.098;13.770;2023-03-13T03:22:10;1.45;;;1.30;;
65751;SDS011;52486;51.098;13.770;2023-03-13T03:24:36;1.48;;;1.10;;
65751;SDS011;52486;51.098;13.770;2023-03-13T03:27:02;1.45;;;1.13;;
65751;SDS011;52486;51.098;13.770;2023-03-13T03:29:28;1.73;;;1.30;;
65751;SDS011;52486;51.098;13.770;2023-03-13T03:31:54;1.30;;;1.00;;
65751;SDS011;52486;51.098;13.770;2023-03-13T03:34:21;2.53;;;1.50;;
65751;SDS011;52486;51.098;13.770;2023-03-13T03:36:47;2.20;;;1.30;;
65751;SDS011;52486;51.098;13.770;2023-03-13T03:39:13;1.30;;;1.02;;
65751;SDS011;52486;51.098;13.770;2023-03-13T03:41:39;2.22;;;1.30;;
65751;SDS011;52486;51.098;13.770;2023-03-13T03:44:05;3.15;;;1.25;;
65751;SDS011;52486;51.098;13.770;2023-03-13T03:46:31;2.05;;;1.33;;
65751;SDS011;52486;51.098;13.770;2023-03-13T03:48:58;1.73;;;1.23;;
65751;SDS011;52486;51.098;13.770;2023-03-13T03:51:24;2.00;;;1.40;;
65751;SDS011;52486;51.098;13.770;2023-03-13T03:53:50;1.13;;;1.02;;
65751;SDS011;52486;51.098;13.770;2023-03-13T03:56:16;2.05;;;1.20;;
65751;SDS011;52486;51.098;13.770;2023-03-13T03:58:42;1.33;;;1.10;;
65751;SDS011;52486;51.098;13.770;2023-03-13T04:01:08;3.55;;;1.30;;
65751;SDS011;52486;51.098;13.770;2023-03-13T04:03:35;2.22;;;1.40;;
65751;SDS011;52486;51.098;13.770;2023-03-13T04:06:01;1.27;;;1.13;;
65751;SDS011;52486;51.098;13.770;2023-03-13T04:08:27;2.38;;;1.30;;
65751;SDS011;52486;51.098;13.770;2023-03-13T04:10:53;1.40;;;1.30;;
65751;SDS011;52486;51.098;13.770;2023-03-13T04:13:19;2.35;;;1.27;;
65751;SDS011;52486;51.098;13.770;2023-03-13T04:15:45;1.88;;;1.20;;
65751;SDS011;52486;51.098;13.770;2023-03-13T04:18:12;1.30;;;1.15;;
65751;SDS011;52486;51.098;13.770;2023-03-13T04:20:38;1.17;;;1.08;;
65751;SDS011;52486;51.098;13.770;2023-03-13T04:23:04;2.08;;;1.27;;
65751;SDS011;52486;51.098;13.770;2023-03-13T04:25:31;1.90;;;1.20;;
65751;SDS011;52486;51.098;13.770;2023-03-13T04:27:57;2.92;;;1.20;;
65751;SDS011;52486;51.098;13.770;2023-03-13T04:30:23;1.63;;;1.30;;
65751;SDS011;52486;51.098;13.770;2023-03-13T04:32:49;4.68;;;1.35;;
65751;SDS011;52486;51.098;13.770;2023-03-13T04:35:15;2.33;;;1.30;;
65751;SDS011;52486;51.098;13.770;2023-03-13T04:37:41;1.30;;;1.15;;
65751;SDS011;52486;51.098;13.770;2023-03-13T04:40:08;1.60;;;1.17;;
65751;SDS011;52486;51.098;13.770;2023-03-13T04:42:34;1.67;;;1.33;;
65751;SDS011;52486;51.098;13.770;2023-03-13T04:45:00;3.22;;;1.45;;
65751;SDS011;52486;51.098;13.770;2023-03-13T04:47:26;1.77;;;1.20;;
65751;SDS011;52486;51.098;13.770;2023-03-13T04:49:52;1.60;;;1.50;;
65751;SDS011;52486;51.098;13.770;2023-03-13T04:52:18;1.48;;;1.17;;
65751;SDS011;52486;51.098;13.770;2023-03-13T04:54:45;1.75;;;1.48;;
65751;SDS011;52486;51.098;13.770;2023-03-13T04:57:11;1.77;;;1.42;;
65751;SDS011;52486;51.098;13.770;2023-03-13T04:59:37;2.33;;;1.40;;
65751;SDS011;52486;51.098;13.770;2023-03-13T05:02:03;1.73;;;1.33;;
65751;SDS011;52486;51.098;13.770;2023-03-13T05:04:29;2.13;;;1.30;;
65751;SDS011;52486;51.098;13.770;2023-03-13T05:06:55;2.28;;;1.48;;
65751;SDS011;52486;51.098;13.770;2023-03-13T05:09:21;1.92;;;1.55;;
65751;SDS011;52486;51.098;13.770;2023-03-13T05:11:47;1.73;;;1.40;;
65751;SDS011;52486;51.098;13.770;2023-03-13T05:14:14;2.90;;;1.67;;
65751;SDS011;52486;51.098;13.770;2023-03-13T05:16:40;2.53;;;1.40;;
65751;SDS011;52486;51.098;13.770;2023-03-13T05:19:06;2.50;;;1.40;;
65751;SDS011;52486;51.098;13.770;2023-03-13T05:21:32;3.60;;;1.70;;
65751;SDS011;52486;51.098;13.770;2023-03-13T05:23:59;1.73;;;1.40;;
65751;SDS011;52486;51.098;13.770;2023-03-13T05:26:25;2.72;;;1.52;;
65751;SDS011;52486;51.098;13.770;2023-03-13T05:28:51;1.45;;;1.17;;
65751;SDS011;52486;51.098;13.770;2023-03-13T05:31:17;1.65;;;1.48;;
65751;SDS011;52486;51.098;13.770;2023-03-13T05:33:43;1.60;;;1.50;;
65751;SDS011;52486;51.098;13.770;2023-03-13T05:36:09;2.15;;;1.52;;
65751;SDS011;52486;51.098;13.770;2023-03-13T05:38:35;1.50;;;1.30;;
65751;SDS011;52486;51.098;13.770;2023-03-13T05:41:01;1.48;;;1.30;;
65751;SDS011;52486;51.098;13.770;2023-03-13T05:43:28;2.70;;;1.60;;
65751;SDS011;52486;51.098;13.770;2023-03-13T05:45:54;1.40;;;1.30;;
65751;SDS011;52486;51.098;13.770;2023-03-13T05:48:20;2.10;;;1.42;;
65751;SDS011;52486;51.098;13.770;2023-03-13T05:50:46;2.08;;;1.35;;
65751;SDS011;52486;51.098;13.770;2023-03-13T05:53:12;2.70;;;1.40;;
65751;SDS011;52486;51.098;13.770;2023-03-13T05:55:38;1.65;;;1.48;;
65751;SDS011;52486;51.098;13.770;2023-03-13T05:58:04;1.60;;;1.42;;
65751;SDS011;52486;51.098;13.770;2023-03-13T06:00:30;1.92;;;1.50;;
65751;SDS011;52486;51.098;13.770;2023-03-13T06:02:56;3.17;;;1.70;;
65751;SDS011;52486;51.098;13.770;2023-03-13T06:05:23;8.13;;;2.05;;
65751;SDS011;52486;51.098;13.770;2023-03-13T06:07:49;8.77;;;2.50;;
65751;SDS011;52486;51.098;13.770;2023-03-13T06:10:15;10.35;;;2.50;;
65751;SDS011;52486;51.098;13.770;2023-03-13T06:12:41;6.45;;;2.05;;
65751;SDS011;52486;51.098;13.770;2023-03-13T06:15:07;8.98;;;2.78;;
65751;SDS011;52486;51.098;13.770;2023-03-13T06:17:34;5.88;;;2.67;;
65751;SDS011;52486;51.098;13.770;2023-03-13T06:20:00;10.63;;;2.92;;
65751;SDS011;52486;51.098;13.770;2023-03-13T06:22:27;10.48;;;3.22;;
65751;SDS011;52486;51.098;13.770;2023-03-13T06:24:53;10.18;;;2.80;;
65751;SDS011;52486;51.098;13.770;2023-03-13T06:27:19;9.63;;;2.90;;
65751;SDS011;52486;51.098;13.770;2023-03-13T06:29:45;7.53;;;2.70;;
65751;SDS011;52486;51.098;13.770;2023-03-13T06:32:11;9.10;;;2.20;;
65751;SDS011;52486;51.098;13.770;2023-03-13T06:34:37;6.53;;;2.42;;
65751;SDS011;52486;51.098;13.770;2023-03-13T06:37:03;6.28;;;2.00;;
65751;SDS011;52486;51.098;13.770;2023-03-13T06:39:29;10.27;;;2.70;;
65751;SDS011;52486;51.098;13.770;2023-03-13T06:41:55;10.55;;;3.13;;
65751;SDS011;52486;51.098;13.770;2023-03-13T06:44:21;11.60;;;2.63;;
65751;SDS011;52486;51.098;13.770;2023-03-13T06:46:48;9.48;;;2.88;;
65751;SDS011;52486;51.098;13.770;2023-03-13T06:49:14;8.43;;;2.42;;
65751;SDS011;52486;51.098;13.770;2023-03-13T06:51:40;6.60;;;3.13;;
65751;SDS011;52486;51.098;13.770;2023-03-13T06:54:06;7.93;;;2.72;;
65751;SDS011;52486;51.098;13.770;2023-03-13T06:56:32;8.70;;;2.88;;
65751;SDS011;52486;51.098;13.770;2023-03-13T06:58:58;8.63;;;3.05;;
65751;SDS011;52486;51.098;13.770;2023-03-13T07:01:24;7.75;;;2.78;;
65751;SDS011;52486;51.098;13.770;2023-03-13T07:03:51;8.15;;;2.85;;
65751;SDS011;52486;51.098;13.770;2023-03-13T07:06:17;8.05;;;2.65;;
65751;SDS011;52486;51.098;13.770;2023-03-13T07:08:43;8.75;;;2.75;;
65751;SDS011;52486;51.098;13.770;2023-03-13T07:11:10;7.78;;;2.40;;
65751;SDS011;52486;51.098;13.770;2023-03-13T07:13:37;8.07;;;2.38;;
65751;SDS011;52486;51.098;13.770;2023-03-13T07:16:04;6.38;;;2.50;;
65751;SDS011;52486;51.098;13.770;2023-03-13T07:18:30;5.22;;;2.10;;
65751;SDS011;52486;51.098;13.770;2023-03-13T07:20:57;9.25;;;2.20;;
65751;SDS011;52486;51.098;13.770;2023-03-13T07:23:24;7.00;;;2.60;;
65751;SDS011;52486;51.098;13.770;2023-03-13T07:25:54;6.90;;;2.53;;
65751;SDS011;52486;51.098;13.770;2023-03-13T07:28:21;7.60;;;2.78;;
65751;SDS011;52486;51.098;13.770;2023-03-13T07:30:47;7.15;;;2.78;;
65751;SDS011;52486;51.098;13.770;2023-03-13T07:33:14;7.22;;;2.53;;
65751;SDS011;52486;51.098;13.770;2023-03-13T07:35:40;6.53;;;2.30;;
65751;SDS011;52486;51.098;13.770;2023-03-13T07:38:06;9.32;;;2.80;;
65751;SDS011;52486;51.098;13.770;2023-03-13T07:40:32;3.90;;;2.42;;
65751;SDS011;52486;51.098;13.770;2023-03-13T07:42:58;5.90;;;2.45;;
65751;SDS011;52486;51.098;13.770;2023-03-13T07:45:24;6.70;;;2.58;;
65751;SDS011;52486;51.098;13.770;2023-03-13T07:47:50;5.97;;;2.55;;
65751;SDS011;52486;51.098;13.770;2023-03-13T07:50:16;9.48;;;2.83;;
65751;SDS011;52486;51.098;13.770;2023-03-13T07:52:43;7.20;;;2.50;;
65751;SDS011;52486;51.098;13.770;2023-03-13T07:55:09;5.93;;;2.40;;
65751;SDS011;52486;51.098;13.770;2023-03-13T07:57:35;6.43;;;2.60;;
65751;SDS011;52486;51.098;13.770;2023-03-13T08:00:01;6.82;;;2.38;;
65751;SDS011;52486;51.098;13.770;2023-03-13T08:02:28;5.38;;;2.22;;
65751;SDS011;52486;51.098;13.770;2023-03-13T08:04:54;4.88;;;2.47;;
65751;SDS011;52486;51.098;13.770;2023-03-13T08:07:20;5.05;;;2.10;;
65751;SDS011;52486;51.098;13.770;2023-03-13T08:09:47;5.28;;;1.90;;
65751;SDS011;52486;51.098;13.770;2023-03-13T08:12:13;3.95;;;2.30;;
65751;SDS011;52486;51.098;13.770;2023-03-13T08:14:39;8.80;;;2.30;;
65751;SDS011;52486;51.098;13.770;2023-03-13T08:17:05;8.70;;;2.33;;
65751;SDS011;52486;51.098;13.770;2023-03-13T08:19:31;6.18;;;2.47;;
65751;SDS011;52486;51.098;13.770;2023-03-13T08:21:57;7.40;;;2.58;;
65751;SDS011;52486;51.098;13.770;2023-03-13T08:24:23;4.95;;;2.42;;
65751;SDS011;52486;51.098;13.770;2023-03-13T08:26:49;5.68;;;2.50;;
65751;SDS011;52486;51.098;13.770;2023-03-13T08:29:15;6.50;;;2.97;;
65751;SDS011;52486;51.098;13.770;2023-03-13T08:31:43;9.05;;;2.60;;
65751;SDS011;52486;51.098;13.770;2023-03-13T08:34:10;7.40;;;2.50;;
65751;SDS011;52486;51.098;13.770;2023-03-13T08:36:37;4.25;;;2.20;;
65751;SDS011;52486;51.098;13.770;2023-03-13T08:39:04;5.20;;;2.60;;
65751;SDS011;52486;51.098;13.770;2023-03-13T08:41:34;5.55;;;2.60;;
65751;SDS011;52486;51.098;13.770;2023-03-13T08:44:01;5.45;;;2.40;;
65751;SDS011;52486;51.098;13.770;2023-03-13T08:46:28;8.60;;;3.58;;
65751;SDS011;52486;51.098;13.770;2023-03-13T08:48:54;9.95;;;4.38;;
65751;SDS011;52486;51.098;13.770;2023-03-13T08:51:21;7.30;;;3.30;;
65751;SDS011;52486;51.098;13.770;2023-03-13T08:53:49;7.57;;;3.25;;
65751;SDS011;52486;51.098;13.770;2023-03-13T08:56:17;5.07;;;2.90;;
65751;SDS011;52486;51.098;13.770;2023-03-13T08:58:47;4.88;;;2.97;;
65751;SDS011;52486;51.098;13.770;2023-03-13T09:01:18;5.53;;;2.55;;
65751;SDS011;52486;51.098;13.770;2023-03-13T09:03:44;4.88;;;2.50;;
65751;SDS011;52486;51.098;13.770;2023-03-13T09:06:10;9.20;;;2.72;;
65751;SDS011;52486;51.098;13.770;2023-03-13T09:08:36;8.98;;;3.00;;
65751;SDS011;52486;51.098;13.770;2023-03-13T09:11:04;7.75;;;2.92;;
65751;SDS011;52486;51.098;13.770;2023-03-13T09:13:35;5.57;;;2.60;;
65751;SDS011;52486;51.098;13.770;2023-03-13T09:16:10;4.95;;;2.65;;
65751;SDS011;52486;51.098;13.770;2023-03-13T09:18:38;4.78;;;2.50;;
65751;SDS011;52486;51.098;13.770;2023-03-13T09:21:05;6.28;;;2.33;;
65751;SDS011;52486;51.098;13.770;2023-03-13T09:23:33;6.07;;;2.67;;
65751;SDS011;52486;51.098;13.770;2023-03-13T09:25:59;7.05;;;2.50;;
65751;SDS011;52486;51.098;13.770;2023-03-13T09:28:26;4.35;;;2.70;;
65751;SDS011;52486;51.098;13.770;2023-03-13T09:30:52;8.43;;;2.60;;
65751;SDS011;52486;51.098;13.770;2023-03-13T09:33:19;4.22;;;2.40;;
65751;SDS011;52486;51.098;13.770;2023-03-13T09:35:47;5.32;;;2.10;;
65751;SDS011;52486;51.098;13.770;2023-03-13T09:38:18;6.65;;;2.50;;
65751;SDS011;52486;51.098;13.770;2023-03-13T09:40:47;3.08;;;2.00;;
65751;SDS011;52486;51.098;13.770;2023-03-13T09:43:59;4.63;;;2.30;;
65751;SDS011;52486;51.098;13.770;2023-03-13T09:46:17;3.83;;;2.22;;
65751;SDS011;52486;51.098;13.770;2023-03-13T09:48:50;5.50;;;2.25;;
65751;SDS011;52486;51.098;13.770;2023-03-13T09:51:25;4.95;;;2.33;;
65751;SDS011;52486;51.098;13.770;2023-03-13T09:56:23;5.50;;;2.20;;
65751;SDS011;52486;51.098;13.770;2023-03-13T09:59:15;5.47;;;2.22;;
65751;SDS011;52486;51.098;13.770;2023-03-13T10:01:39;6.65;;;2.40;;
65751;SDS011;52486;51.098;13.770;2023-03-13T10:04:10;3.95;;;2.38;;
65751;SDS011;52486;51.098;13.770;2023-03-13T10:06:39;7.07;;;2.45;;
65751;SDS011;52486;51.098;13.770;2023-03-13T10:09:48;4.20;;;2.38;;
65751;SDS011;52486;51.098;13.770;2023-03-13T10:11:57;4.47;;;2.45;;
65751;SDS011;52486;51.098;13.770;2023-03-13T10:16:54;3.25;;;2.10;;
65751;SDS011;52486;51.098;13.770;2023-03-13T10:19:23;3.13;;;2.20;;
65751;SDS011;52486;51.098;13.770;2023-03-13T10:21:52;4.28;;;2.38;;
65751;SDS011;52486;51.098;13.770;2023-03-13T10:24:31;2.42;;;2.10;;
65751;SDS011;52486;51.098;13.770;2023-03-13T10:26:58;3.92;;;2.40;;
65751;SDS011;52486;51.098;13.770;2023-03-13T10:29:28;2.83;;;2.10;;
65751;SDS011;52486;51.098;13.770;2023-03-13T10:34:22;3.67;;;2.42;;
65751;SDS011;52486;51.098;13.770;2023-03-13T10:36:49;2.67;;;2.25;;
65751;SDS011;52486;51.098;13.770;2023-03-13T10:39:22;3.95;;;2.05;;
65751;SDS011;52486;51.098;13.770;2023-03-13T10:41:49;4.37;;;2.43;;
65751;SDS011;52486;51.098;13.770;2023-03-13T10:44:19;2.63;;;1.90;;
65751;SDS011;52486;51.098;13.770;2023-03-13T10:46:46;4.93;;;2.47;;
65751;SDS011;52486;51.098;13.770;2023-03-13T10:49:22;3.85;;;2.08;;
65751;SDS011;52486;51.098;13.770;2023-03-13T10:51:56;3.67;;;2.08;;
65751;SDS011;52486;51.098;13.770;2023-03-13T10:54:30;4.80;;;2.65;;
65751;SDS011;52486;51.098;13.770;2023-03-13T10:59:42;5.05;;;2.90;;
65751;SDS011;52486;51.098;13.770;2023-03-13T11:02:27;3.97;;;2.80;;
65751;SDS011;52486;51.098;13.770;2023-03-13T11:04:56;5.47;;;2.75;;
65751;SDS011;52486;51.098;13.770;2023-03-13T11:07:34;4.72;;;2.65;;
65751;SDS011;52486;51.098;13.770;2023-03-13T11:10:18;4.20;;;2.70;;
65751;SDS011;52486;51.098;13.770;2023-03-13T11:12:53;4.70;;;2.92;;
65751;SDS011;52486;51.098;13.770;2023-03-13T11:15:27;4.88;;;2.88;;
65751;SDS011;52486;51.098;13.770;2023-03-13T11:18:00;5.53;;;3.08;;
65751;SDS011;52486;51.098;13.770;2023-03-13T11:20:29;6.38;;;2.70;;
65751;SDS011;52486;51.098;13.770;2023-03-13T11:30:31;6.18;;;3.05;;
65751;SDS011;52486;51.098;13.770;2023-03-13T11:33:15;4.97;;;2.90;;
65751;SDS011;52486;51.098;13.770;2023-03-13T11:40:53;4.63;;;2.95;;
65751;SDS011;52486;51.098;13.770;2023-03-13T11:56:13;6.53;;;2.30;;
65751;SDS011;52486;51.098;13.770;2023-03-13T12:01:19;3.25;;;2.33;;
65751;SDS011;52486;51.098;13.770;2023-03-13T12:03:51;9.15;;;2.65;;
65751;SDS011;52486;51.098;13.770;2023-03-13T12:08:46;4.65;;;2.08;;
65751;SDS011;52486;51.098;13.770;2023-03-13T12:11:17;4.00;;;1.77;;
65751;SDS011;52486;51.098;13.770;2023-03-13T12:13:46;5.63;;;2.33;;
65751;SDS011;52486;51.098;13.770;2023-03-13T12:16:15;3.50;;;1.90;;
65751;SDS011;52486;51.098;13.770;2023-03-13T12:23:51;8.90;;;1.77;;
65751;SDS011;52486;51.098;13.770;2023-03-13T12:26:20;5.55;;;1.77;;
65751;SDS011;52486;51.098;13.770;2023-03-13T12:31:52;3.22;;;1.85;;
65751;SDS011;52486;51.098;13.770;2023-03-13T12:44:38;6.13;;;1.98;;
65751;SDS011;52486;51.098;13.770;2023-03-13T12:49:34;3.80;;;1.90;;
65751;SDS011;52486;51.098;13.770;2023-03-13T12:52:19;2.88;;;1.90;;
65751;SDS011;52486;51.098;13.770;2023-03-13T12:54:52;2.47;;;1.98;;
65751;SDS011;52486;51.098;13.770;2023-03-13T12:59:55;3.78;;;1.70;;
65751;SDS011;52486;51.098;13.770;2023-03-13T13:02:27;6.70;;;1.77;;
65751;SDS011;52486;51.098;13.770;2023-03-13T13:04:55;3.38;;;1.80;;
65751;SDS011;52486;51.098;13.770;2023-03-13T13:12:34;2.70;;;1.77;;
65751;SDS011;52486;51.098;13.770;2023-03-13T13:15:01;2.85;;;1.70;;
65751;SDS011;52486;51.098;13.770;2023-03-13T13:19:54;2.70;;;1.80;;
65751;SDS011;52486;51.098;13.770;2023-03-13T13:30:27;3.00;;;1.90;;
65751;SDS011;52486;51.098;13.770;2023-03-13T13:32:51;5.68;;;1.90;;
65751;SDS011;52486;51.098;13.770;2023-03-13T13:37:44;6.32;;;1.90;;
65751;SDS011;52486;51.098;13.770;2023-03-13T13:42:47;5.63;;;1.95;;
65751;SDS011;52486;51.098;13.770;2023-03-13T13:47:40;2.50;;;1.73;;
65751;SDS011;52486;51.098;13.770;2023-03-13T13:52:42;2.72;;;1.52;;
65751;SDS011;52486;51.098;13.770;2023-03-13T13:58:01;3.85;;;1.70;;
65751;SDS011;52486;51.098;13.770;2023-03-13T14:00:32;2.53;;;1.58;;
65751;SDS011;52486;51.098;13.770;2023-03-13T14:02:59;2.20;;;1.63;;
65751;SDS011;52486;51.098;13.770;2023-03-13T14:05:34;1.92;;;1.70;;
65751;SDS011;52486;51.098;13.770;2023-03-13T14:08:05;1.80;;;1.60;;
65751;SDS011;52486;51.098;13.770;2023-03-13T14:10:35;2.58;;;1.73;;
65751;SDS011;52486;51.098;13.770;2023-03-13T14:13:02;3.63;;;1.50;;
65751;SDS011;52486;51.098;13.770;2023-03-13T14:15:35;4.78;;;1.50;;
65751;SDS011;52486;51.098;13.770;2023-03-13T14:21:01;3.10;;;1.77;;
65751;SDS011;52486;51.098;13.770;2023-03-13T14:26:07;6.32;;;1.73;;
65751;SDS011;52486;51.098;13.770;2023-03-13T14:28:33;2.55;;;1.85;;
65751;SDS011;52486;51.098;13.770;2023-03-13T14:30:59;2.85;;;1.80;;
65751;SDS011;52486;51.098;13.770;2023-03-13T14:33:26;3.30;;;1.70;;
65751;SDS011;52486;51.098;13.770;2023-03-13T14:35:52;4.20;;;1.60;;
65751;SDS011;52486;51.098;13.770;2023-03-13T14:38:23;6.35;;;1.67;;
65751;SDS011;52486;51.098;13.770;2023-03-13T14:40:50;2.75;;;1.90;;
65751;SDS011;52486;51.098;13.770;2023-03-13T14:45:46;1.70;;;1.60;;
65751;SDS011;52486;51.098;13.770;2023-03-13T14:48:17;2.83;;;1.60;;
65751;SDS011;52486;51.098;13.770;2023-03-13T14:50:44;3.38;;;1.42;;
65751;SDS011;52486;51.098;13.770;2023-03-13T14:53:11;6.28;;;1.88;;
65751;SDS011;52486;51.098;13.770;2023-03-13T14:55:38;5.85;;;1.75;;
65751;SDS011;52486;51.098;13.770;2023-03-13T15:08:14;4.68;;;1.50;;
65751;SDS011;52486;51.098;13.770;2023-03-13T15:10:40;4.28;;;1.30;;
65751;SDS011;52486;51.098;13.770;2023-03-13T15:13:40;2.45;;;1.58;;
65751;SDS011;52486;51.098;13.770;2023-03-13T15:16:01;3.97;;;1.60;;
65751;SDS011;52486;51.098;13.770;2023-03-13T15:18:29;8.07;;;1.38;;
65751;SDS011;52486;51.098;13.770;2023-03-13T15:21:17;2.75;;;1.40;;
65751;SDS011;52486;51.098;13.770;2023-03-13T15:24:30;1.50;;;1.40;;
65751;SDS011;52486;51.098;13.770;2023-03-13T15:26:31;5.10;;;1.48;;
65751;SDS011;52486;51.098;13.770;2023-03-13T15:28:57;3.17;;;1.30;;
65751;SDS011;52486;51.098;13.770;2023-03-13T15:31:24;3.90;;;1.40;;
65751;SDS011;52486;51.098;13.770;2023-03-13T15:34:00;1.48;;;1.38;;
65751;SDS011;52486;51.098;13.770;2023-03-13T15:36:27;3.40;;;1.30;;
65751;SDS011;52486;51.098;13.770;2023-03-13T15:38:54;14.90;;;1.50;;
65751;SDS011;52486;51.098;13.770;2023-03-13T15:41:20;5.65;;;1.40;;
65751;SDS011;52486;51.098;13.770;2023-03-13T15:43:47;1.38;;;1.10;;
65751;SDS011;52486;51.098;13.770;2023-03-13T15:46:17;5.27;;;1.50;;
65751;SDS011;52486;51.098;13.770;2023-03-13T15:48:45;1.85;;;1.33;;
65751;SDS011;52486;51.098;13.770;2023-03-13T15:51:12;1.92;;;1.30;;
65751;SDS011;52486;51.098;13.770;2023-03-13T15:53:38;1.42;;;1.08;;
65751;SDS011;52486;51.098;13.770;2023-03-13T15:56:10;1.20;;;1.10;;
65751;SDS011;52486;51.098;13.770;2023-03-13T15:58:38;3.08;;;1.20;;
65751;SDS011;52486;51.098;13.770;2023-03-13T16:01:04;1.48;;;1.38;;
65751;SDS011;52486;51.098;13.770;2023-03-13T16:03:30;1.67;;;1.30;;
65751;SDS011;52486;51.098;13.770;2023-03-13T16:05:56;4.88;;;1.20;;
65751;SDS011;52486;51.098;13.770;2023-03-13T16:08:24;3.72;;;1.48;;
65751;SDS011;52486;51.098;13.770;2023-03-13T16:10:50;2.70;;;1.40;;
65751;SDS011;52486;51.098;13.770;2023-03-13T16:13:17;2.60;;;1.20;;
65751;SDS011;52486;51.098;13.770;2023-03-13T16:15:44;6.65;;;1.20;;
65751;SDS011;52486;51.098;13.770;2023-03-13T16:18:20;3.35;;;1.23;;
65751;SDS011;52486;51.098;13.770;2023-03-13T16:20:47;2.03;;;1.20;;
65751;SDS011;52486;51.098;13.770;2023-03-13T16:23:13;2.30;;;1.20;;
65751;SDS011;52486;51.098;13.770;2023-03-13T16:25:40;2.78;;;1.33;;
65751;SDS011;52486;51.098;13.770;2023-03-13T16:28:09;1.75;;;1.17;;
65751;SDS011;52486;51.098;13.770;2023-03-13T16:30:36;3.00;;;1.63;;
65751;SDS011;52486;51.098;13.770;2023-03-13T16:33:06;1.20;;;1.10;;
65751;SDS011;52486;51.098;13.770;2023-03-13T16:35:32;2.33;;;1.30;;